Time;durP1;ratioP1;P1;durP2;ratioP2;P2;SDS_P1;SDS_P2;PMS_P1;PMS_P2;Temp;Humidity;BMP_temperature;BMP_pressure;BME280_temperature;BME280_humidity;BME280_pressure;Samples;Min_cycle;Max_cycle;Signal;HPM_P1;HPM_P2
2023/02/03 00:00:07;;;;;;;4.78;3.17;;;;;;;3.26;56.91;95153.09;5064510;28;20477;-78
2023/02/03 00:02:32;;;;;;;5.78;3.33;;;;;;;3.16;57.72;95145.72;5048894;28;20036;-78
2023/02/03 00:04:57;;;;;;;4.57;3.00;;;;;;;3.09;58.26;95156.53;5066027;28;20382;-78
2023/02/03 00:07:23;;;;;;;5.60;3.65;;;;;;;3.06;58.67;95162.75;5053792;28;20066;-76
2023/02/03 00:09:48;;;;;;;6.35;3.60;;;;;;;3.02;59.25;95167.38;5069269;28;20036;-76
2023/02/03 00:12:14;;;;;;;5.05;3.50;;;;;;;2.99;59.34;95168.16;5067500;28;20024;-78
2023/02/03 00:14:39;;;;;;;4.93;3.20;;;;;;;2.95;59.61;95176.28;5066817;28;20020;-79
2023/02/03 00:17:06;;;;;;;4.22;3.15;;;;;;;2.96;59.60;95171.63;5066386;28;20040;-79
2023/02/03 00:19:31;;;;;;;6.00;3.50;;;;;;;2.87;59.87;95172.78;5065388;28;20501;-78
2023/02/03 00:21:57;;;;;;;6.05;3.72;;;;;;;2.90;60.00;95179.38;5065336;28;20048;-77
2023/02/03 00:24:22;;;;;;;7.38;3.55;;;;;;;2.79;60.36;95176.59;5066392;28;20704;-77
2023/02/03 00:26:48;;;;;;;5.80;3.47;;;;;;;2.77;60.82;95181.63;5063481;28;20035;-80
2023/02/03 00:29:14;;;;;;;4.90;3.42;;;;;;;2.76;61.02;95180.09;5064562;28;20035;-76
2023/02/03 00:31:39;;;;;;;6.10;3.55;;;;;;;2.76;61.28;95177.38;5065576;28;20043;-77
2023/02/03 00:34:05;;;;;;;4.35;3.15;;;;;;;2.82;61.22;95189.44;5047936;28;20025;-77
2023/02/03 00:36:30;;;;;;;6.32;3.63;;;;;;;2.79;61.27;95184.75;5064156;28;20392;-76
2023/02/03 00:38:56;;;;;;;4.53;3.22;;;;;;;2.75;61.65;95189.38;5063781;28;20017;-76
2023/02/03 00:41:22;;;;;;;4.13;3.20;;;;;;;2.80;61.75;95194.44;5064289;28;20043;-76
2023/02/03 00:43:48;;;;;;;5.22;3.28;;;;;;;2.72;62.04;95192.88;5063584;28;20021;-77
2023/02/03 00:46:13;;;;;;;4.25;3.30;;;;;;;2.63;62.21;95193.19;5064294;28;20032;-78
2023/02/03 00:48:39;;;;;;;5.18;3.25;;;;;;;2.70;62.33;95197.13;5030344;28;20032;-78
2023/02/03 00:51:05;;;;;;;5.78;3.30;;;;;;;2.73;62.05;95191.69;5064107;28;20021;-76
2023/02/03 00:53:31;;;;;;;5.03;3.22;;;;;;;2.76;62.04;95196.38;5063612;28;20111;-79
2023/02/03 00:55:56;;;;;;;3.83;2.95;;;;;;;2.73;62.25;95205.28;5065069;28;20112;-78
2023/02/03 00:58:21;;;;;;;4.47;3.40;;;;;;;2.71;62.09;95201.41;5065441;28;20024;-78
2023/02/03 01:00:47;;;;;;;5.50;2.92;;;;;;;2.74;62.13;95206.03;5046576;28;20028;-76
2023/02/03 01:03:12;;;;;;;4.57;3.30;;;;;;;2.74;61.84;95212.25;5065514;28;20032;-77
2023/02/03 01:05:38;;;;;;;4.80;3.42;;;;;;;2.74;62.10;95223.13;5063730;28;20059;-78
2023/02/03 01:08:03;;;;;;;4.07;3.05;;;;;;;2.67;61.86;95228.50;5065988;28;20034;-78
2023/02/03 01:10:29;;;;;;;4.78;3.42;;;;;;;2.60;62.08;95223.03;5063646;28;20573;-78
2023/02/03 01:12:55;;;;;;;6.32;3.53;;;;;;;2.62;62.17;95221.50;5064289;28;20044;-77
2023/02/03 01:15:20;;;;;;;5.15;3.28;;;;;;;2.62;62.14;95212.56;5065309;28;20047;-77
2023/02/03 01:17:46;;;;;;;6.55;4.22;;;;;;;2.67;61.60;95215.72;5064805;28;20154;-78
2023/02/03 01:20:15;;;;;;;5.05;3.50;;;;;;;2.68;61.40;95227.34;5063877;28;20044;-77
2023/02/03 01:22:41;;;;;;;7.95;2.65;;;;;;;2.69;61.35;95218.03;5064195;28;20538;-77
2023/02/03 01:25:07;;;;;;;3.55;2.47;;;;;;;2.64;61.31;95232.00;5064894;28;20033;-77
2023/02/03 01:27:32;;;;;;;3.78;2.42;;;;;;;2.65;61.32;95218.03;5062901;28;20052;-77
2023/02/03 01:29:58;;;;;;;4.25;2.25;;;;;;;2.62;61.02;95213.34;5063450;28;20028;-77
2023/02/03 01:32:23;;;;;;;2.58;1.95;;;;;;;2.50;61.12;95210.94;5063251;28;20027;-78
2023/02/03 01:34:49;;;;;;;4.57;2.55;;;;;;;2.44;61.37;95217.13;5064604;28;20040;-77
2023/02/03 01:37:16;;;;;;;5.35;2.28;;;;;;;2.40;61.48;95222.50;5064858;28;20033;-77
2023/02/03 01:39:42;;;;;;;2.58;1.90;;;;;;;2.40;61.49;95220.56;5063939;28;20430;-77
2023/02/03 01:42:11;;;;;;;3.38;1.98;;;;;;;2.40;61.25;95223.28;5064615;28;20438;-77
2023/02/03 01:44:50;;;;;;;3.30;2.40;;;;;;;2.43;61.32;95227.19;5064413;28;20032;-76
2023/02/03 01:47:35;;;;;;;4.38;2.00;;;;;;;2.48;61.03;95234.22;5046616;28;20039;-77
2023/02/03 01:50:21;;;;;;;2.63;2.00;;;;;;;2.49;60.94;95243.91;5062893;28;20574;-78
2023/02/03 01:52:52;;;;;;;3.08;1.75;;;;;;;2.57;60.60;95230.00;5063847;28;20085;-79
2023/02/03 01:55:25;;;;;;;2.47;1.83;;;;;;;2.60;60.32;95228.47;5063168;28;20060;-77
2023/02/03 01:58:24;;;;;;;3.60;1.90;;;;;;;2.64;59.99;95229.28;5064184;28;20112;-76
2023/02/03 02:00:51;;;;;;;3.85;1.85;;;;;;;2.64;60.00;95238.19;5066225;28;20050;-79
2023/02/03 02:03:20;;;;;;;3.15;2.15;;;;;;;2.58;60.16;95222.63;5065962;28;20039;-77
2023/02/03 02:05:54;;;;;;;3.50;1.90;;;;;;;2.58;60.07;95228.84;5065094;28;20118;-77
2023/02/03 02:08:21;;;;;;;3.72;1.80;;;;;;;2.53;60.13;95231.16;5065542;28;20120;-77
2023/02/03 02:10:47;;;;;;;3.25;1.67;;;;;;;2.56;60.15;95236.56;5081539;28;20055;-78
2023/02/03 02:13:13;;;;;;;3.72;1.80;;;;;;;2.58;59.75;95241.63;5064377;28;20036;-76
2023/02/03 02:16:05;;;;;;;2.97;1.90;;;;;;;2.57;60.21;95235.41;5081594;28;20502;-77
2023/02/03 02:18:51;;;;;;;3.03;1.75;;;;;;;2.53;60.13;95244.72;5081560;28;20501;-77
2023/02/03 02:21:38;;;;;;;2.92;2.00;;;;;;;2.49;60.26;95252.81;5081941;28;20206;-76
2023/02/03 02:24:25;;;;;;;2.55;1.88;;;;;;;2.46;60.20;95250.06;5081594;28;20036;-76
2023/02/03 02:27:06;;;;;;;3.80;2.20;;;;;;;2.43;59.74;95245.41;5064454;28;20036;-76
2023/02/03 02:29:47;;;;;;;3.30;2.38;;;;;;;2.38;60.26;95241.88;5065353;28;20083;-75
2023/02/03 02:32:18;;;;;;;5.03;2.80;;;;;;;2.33;60.21;95249.59;5064932;28;20043;-76
2023/02/03 02:35:11;;;;;;;2.88;2.10;;;;;;;2.32;60.47;95248.81;5083617;28;20043;-76
2023/02/03 02:37:43;;;;;;;3.83;2.50;;;;;;;2.25;60.72;95237.13;5065139;28;20032;-77
2023/02/03 02:40:33;;;;;;;4.30;2.58;;;;;;;2.19;61.01;95233.22;5063352;28;20024;-78
2023/02/03 02:43:10;;;;;;;4.47;2.50;;;;;;;2.10;61.23;95239.72;5064573;28;20041;-76
2023/02/03 02:45:48;;;;;;;3.05;2.47;;;;;;;2.08;61.42;95238.56;5062438;28;20071;-78
2023/02/03 02:48:20;;;;;;;3.78;3.00;;;;;;;2.06;61.39;95238.13;5062481;28;20056;-76
2023/02/03 02:50:49;;;;;;;3.45;2.50;;;;;;;2.07;61.35;95266.81;5065627;28;20029;-76
2023/02/03 02:53:16;;;;;;;2.92;2.20;;;;;;;2.07;61.30;95275.75;5049038;28;20024;-76
2023/02/03 02:55:42;;;;;;;4.03;2.70;;;;;;;2.05;61.08;95269.88;5071002;28;20020;-76
2023/02/03 02:58:11;;;;;;;4.32;2.72;;;;;;;2.10;60.63;95272.25;5066391;28;20505;-79
2023/02/03 03:00:37;;;;;;;3.75;2.45;;;;;;;2.09;60.15;95278.06;5066812;28;20082;-77
2023/02/03 03:03:11;;;;;;;3.63;2.40;;;;;;;2.15;60.20;95273.09;5065712;28;20024;-76
2023/02/03 03:05:38;;;;;;;2.92;2.15;;;;;;;2.18;59.77;95272.31;5067283;28;20025;-77
2023/02/03 03:08:03;;;;;;;4.00;2.72;;;;;;;2.11;59.53;95276.53;5049677;28;20020;-75
2023/02/03 03:10:30;;;;;;;3.08;2.17;;;;;;;2.15;59.33;95273.88;5048769;28;20616;-78
2023/02/03 03:13:03;;;;;;;3.28;2.30;;;;;;;2.12;59.28;95280.03;5066259;28;20040;-77
2023/02/03 03:15:31;;;;;;;3.72;2.50;;;;;;;2.08;59.09;95285.44;5065728;28;20020;-77
2023/02/03 03:17:58;;;;;;;3.40;2.42;;;;;;;2.14;59.25;95302.16;5066405;28;20043;-77
2023/02/03 03:20:25;;;;;;;2.60;2.00;;;;;;;2.15;58.85;95289.34;5065292;28;20463;-77
2023/02/03 03:23:01;;;;;;;3.47;2.20;;;;;;;2.21;58.55;95301.44;5066059;28;20064;-76
2023/02/03 03:25:42;;;;;;;2.97;2.08;;;;;;;2.19;58.36;95290.19;5066446;28;20050;-78
2023/02/03 03:28:25;;;;;;;3.33;2.13;;;;;;;2.24;58.11;95297.97;5065457;28;20108;-78
2023/02/03 03:30:51;;;;;;;2.58;2.28;;;;;;;2.14;57.71;95291.28;5066254;28;20116;-77
2023/02/03 03:33:16;;;;;;;2.42;1.85;;;;;;;2.16;57.79;95302.53;5065347;28;20111;-78
2023/02/03 03:36:09;;;;;;;3.83;2.70;;;;;;;2.14;58.00;95302.16;5065773;28;20463;-77
2023/02/03 03:38:53;;;;;;;2.42;2.10;;;;;;;2.08;58.23;95293.56;5049619;28;20042;-77
2023/02/03 03:41:23;;;;;;;;;;;;;;;2.00;58.22;95299.28;5065814;28;20568;-77
2023/02/03 03:43:50;;;;;;;2.65;2.00;;;;;;;1.99;58.32;95298.50;5065452;28;19919;-77
2023/02/03 03:46:20;;;;;;;3.28;2.00;;;;;;;1.95;58.24;95303.13;5065014;28;20028;-77
2023/02/03 03:48:53;;;;;;;3.75;2.10;;;;;;;2.01;58.46;95309.00;5048290;28;20040;-78
2023/02/03 03:51:21;;;;;;;2.70;2.25;;;;;;;1.94;58.36;95295.34;5052100;28;20485;-77
2023/02/03 03:53:49;;;;;;;2.45;1.90;;;;;;;1.96;58.39;95296.56;5066779;28;20040;-77
2023/02/03 03:56:20;;;;;;;2.20;1.85;;;;;;;1.95;58.65;95291.47;5065222;28;20502;-77
2023/02/03 03:58:47;;;;;;;3.70;1.90;;;;;;;1.94;58.71;95295.34;5065326;28;20027;-77
2023/02/03 04:01:13;;;;;;;2.78;1.60;;;;;;;1.95;58.86;95297.72;5065207;28;20598;-78
2023/02/03 04:03:43;;;;;;;3.38;2.33;;;;;;;1.89;58.91;95296.47;5065316;28;20112;-77
2023/02/03 04:06:08;;;;;;;3.50;2.08;;;;;;;1.94;59.07;95300.78;5064711;28;20052;-78
2023/02/03 04:08:35;;;;;;;3.42;2.70;;;;;;;1.92;59.46;95295.72;5065386;28;20062;-80
2023/02/03 04:11:00;;;;;;;2.88;2.10;;;;;;;1.89;59.37;95296.47;5048365;28;20128;-77
2023/02/03 04:13:26;;;;;;;2.92;2.33;;;;;;;1.90;59.32;95297.25;5066465;28;20096;-78
2023/02/03 04:15:51;;;;;;;3.33;2.30;;;;;;;1.84;59.41;95313.88;5066382;28;20063;-76
2023/02/03 04:18:17;;;;;;;3.17;2.42;;;;;;;1.76;59.35;95311.44;5064803;28;20028;-76
2023/02/03 04:20:42;;;;;;;3.38;2.60;;;;;;;1.72;59.17;95322.25;5065692;28;20048;-77
2023/02/03 04:23:09;;;;;;;3.28;2.42;;;;;;;1.72;59.13;95314.13;5064597;28;20029;-75
2023/02/03 04:25:34;;;;;;;3.50;2.40;;;;;;;1.71;59.28;95317.97;5048288;28;20032;-75
2023/02/03 04:27:59;;;;;;;3.20;2.70;;;;;;;1.70;59.18;95315.63;5064133;28;20431;-77
2023/02/03 04:30:25;;;;;;;4.97;2.40;;;;;;;1.64;59.53;95319.81;5064465;28;20502;-77
2023/02/03 04:32:51;;;;;;;3.83;2.42;;;;;;;1.61;59.36;95329.47;5063960;28;20461;-75
2023/02/03 04:35:17;;;;;;;4.60;2.30;;;;;;;1.60;59.58;95331.38;5064209;28;20024;-78
2023/02/03 04:37:42;;;;;;;4.90;2.55;;;;;;;1.62;59.69;95331.03;5047817;28;20036;-76
2023/02/03 04:40:08;;;;;;;3.55;2.30;;;;;;;1.55;59.80;95329.03;5064262;28;20112;-75
2023/02/03 04:42:37;;;;;;;2.55;2.25;;;;;;;1.41;60.34;95331.53;5064183;28;20040;-76
2023/02/03 04:45:03;;;;;;;3.58;2.97;;;;;;;1.40;60.27;95343.53;5063794;28;20105;-75
2023/02/03 04:47:29;;;;;;;2.80;2.10;;;;;;;1.47;60.21;95332.78;5050127;28;20039;-77
2023/02/03 04:49:54;;;;;;;3.80;2.25;;;;;;;1.56;60.06;95336.00;5064119;28;20024;-77
2023/02/03 04:52:20;;;;;;;4.90;2.72;;;;;;;1.60;59.90;95342.22;5065580;28;20111;-76
2023/02/03 04:54:45;;;;;;;5.43;2.35;;;;;;;1.66;59.46;95344.63;5063952;28;20189;-77
2023/02/03 04:57:12;;;;;;;3.03;2.45;;;;;;;1.69;59.23;95354.72;5067006;28;20027;-77
2023/02/03 04:59:37;;;;;;;3.40;2.67;;;;;;;1.55;59.55;95352.63;5064942;28;20507;-76
2023/02/03 05:02:03;;;;;;;3.60;2.75;;;;;;;1.50;59.76;95361.88;5064120;28;20116;-77
2023/02/03 05:04:28;;;;;;;3.97;2.80;;;;;;;1.51;59.94;95359.94;5047626;28;20035;-76
2023/02/03 05:06:55;;;;;;;4.93;2.70;;;;;;;1.48;59.94;95356.00;5064974;28;20487;-76
2023/02/03 05:09:20;;;;;;;3.83;2.90;;;;;;;1.54;59.85;95351.06;5065270;28;20020;-76
2023/02/03 05:11:46;;;;;;;5.05;3.17;;;;;;;1.60;59.18;95360.41;5064913;28;20036;-76
2023/02/03 05:14:11;;;;;;;3.97;2.55;;;;;;;1.60;59.07;95357.72;5063431;28;20099;-75
2023/02/03 05:16:36;;;;;;;4.43;2.55;;;;;;;1.60;59.03;95366.63;5065221;28;20150;-76
2023/02/03 05:19:02;;;;;;;3.88;2.70;;;;;;;1.60;59.25;95376.69;5065253;28;20321;-74
2023/02/03 05:21:27;;;;;;;3.63;2.88;;;;;;;1.63;59.36;95378.66;5063207;28;20434;-75
2023/02/03 05:23:53;;;;;;;3.80;3.13;;;;;;;1.64;59.47;95385.66;5064543;28;20507;-75
2023/02/03 05:26:18;;;;;;;4.13;3.33;;;;;;;1.67;59.19;95398.47;5063876;28;20032;-75
2023/02/03 05:28:44;;;;;;;3.25;2.53;;;;;;;1.69;59.29;95398.09;5063150;28;20028;-74
2023/02/03 05:31:09;;;;;;;3.75;2.92;;;;;;;1.71;59.46;95402.00;5063411;28;20124;-77
2023/02/03 05:33:34;;;;;;;4.28;2.80;;;;;;;1.73;59.34;95399.72;5063227;28;20064;-76
2023/02/03 05:36:00;;;;;;;4.35;3.03;;;;;;;1.74;59.16;95403.97;5063740;28;20103;-76
2023/02/03 05:38:26;;;;;;;3.33;3.03;;;;;;;1.82;58.98;95404.84;5064579;28;20028;-76
2023/02/03 05:43:35;;;;;;;3.63;2.88;;;;;;;1.69;59.25;95404.28;5069306;28;20043;-77
2023/02/03 05:46:02;;;;;;;3.30;2.70;;;;;;;1.68;59.41;95410.88;5063570;28;20020;-77
2023/02/03 05:48:28;;;;;;;5.20;2.83;;;;;;;1.64;59.43;95407.31;5063456;28;20024;-76
2023/02/03 05:50:53;;;;;;;5.57;3.25;;;;;;;1.55;59.45;95398.72;5064740;28;20035;-76
2023/02/03 05:53:19;;;;;;;5.35;3.22;;;;;;;1.68;59.29;95412.81;5063497;28;20074;-76
2023/02/03 05:55:44;;;;;;;4.03;3.60;;;;;;;1.68;59.24;95413.59;5046369;28;20439;-76
2023/02/03 05:58:10;;;;;;;4.18;3.15;;;;;;;1.54;59.38;95400.59;5064185;28;20070;-77
2023/02/03 06:00:35;;;;;;;3.28;2.72;;;;;;;1.54;59.49;95413.38;5063579;28;20028;-77
2023/02/03 06:03:01;;;;;;;3.95;3.42;;;;;;;1.54;59.49;95418.81;5062838;28;20016;-76
2023/02/03 06:05:27;;;;;;;3.42;3.13;;;;;;;1.55;59.50;95414.97;5063294;28;20074;-75
2023/02/03 06:07:52;;;;;;;3.90;2.63;;;;;;;1.60;59.20;95411.91;5063258;28;20467;-76
2023/02/03 06:10:18;;;;;;;5.70;3.38;;;;;;;1.59;59.13;95410.34;5064776;28;20060;-77
2023/02/03 06:12:44;;;;;;;3.05;2.72;;;;;;;1.57;58.96;95410.72;5064089;28;20029;-76
2023/02/03 06:15:09;;;;;;;4.35;3.05;;;;;;;1.60;59.00;95417.34;5064566;28;20036;-77
2023/02/03 06:17:36;;;;;;;6.30;3.40;;;;;;;1.65;58.86;95408.09;5063779;28;20051;-77
2023/02/03 06:20:06;;;;;;;6.03;3.50;;;;;;;1.67;58.54;95412.03;5062960;28;20075;-77
2023/02/03 06:22:32;;;;;;;3.45;3.13;;;;;;;1.65;58.61;95414.31;5063253;28;20093;-78
2023/02/03 06:24:58;;;;;;;5.28;3.47;;;;;;;1.60;58.81;95412.69;5065687;28;20495;-76
2023/02/03 06:27:23;;;;;;;4.85;3.00;;;;;;;1.61;58.75;95418.91;5067055;28;20044;-76
2023/02/03 06:29:49;;;;;;;4.97;3.25;;;;;;;1.60;58.77;95409.19;5066945;28;20036;-77
2023/02/03 06:32:14;;;;;;;4.97;3.97;;;;;;;1.66;58.35;95417.78;5066921;28;20031;-76
2023/02/03 06:34:40;;;;;;;7.72;3.83;;;;;;;1.71;58.53;95426.38;5050543;28;20032;-78
2023/02/03 06:37:05;;;;;;;7.93;3.80;;;;;;;1.72;58.45;95424.44;5067288;28;20051;-77
2023/02/03 06:39:31;;;;;;;3.08;2.70;;;;;;;1.71;58.24;95420.19;5072611;28;20029;-76
2023/02/03 06:41:56;;;;;;;3.22;2.72;;;;;;;1.76;58.29;95428.00;5066976;28;20039;-77
2023/02/03 06:44:22;;;;;;;2.88;2.58;;;;;;;1.77;58.29;95440.41;5066638;28;20493;-77
2023/02/03 06:46:47;;;;;;;2.92;2.63;;;;;;;1.84;58.00;95445.94;5067782;28;20039;-76
2023/02/03 06:49:13;;;;;;;3.55;2.97;;;;;;;1.92;57.99;95449.50;5068313;28;20048;-77
2023/02/03 06:51:38;;;;;;;3.83;3.13;;;;;;;1.93;57.44;95449.13;5067930;28;20024;-77
2023/02/03 06:54:04;;;;;;;4.20;3.20;;;;;;;2.01;57.35;95455.44;5068293;28;20064;-85
2023/02/03 06:56:29;;;;;;;3.40;2.90;;;;;;;2.08;57.04;95452.81;5065746;28;20040;-78
2023/02/03 06:58:56;;;;;;;4.13;3.40;;;;;;;2.14;56.88;95454.03;5049007;28;20090;-77
2023/02/03 07:01:21;;;;;;;5.25;3.00;;;;;;;2.21;56.58;95456.81;5065583;28;20033;-78
2023/02/03 07:03:47;;;;;;;3.55;3.25;;;;;;;2.31;56.35;95466.25;5066126;28;20031;-78
2023/02/03 07:06:13;;;;;;;3.80;3.25;;;;;;;2.37;56.19;95460.13;5067645;28;20032;-78
2023/02/03 07:08:38;;;;;;;4.70;3.05;;;;;;;2.52;55.75;95466.47;5068061;28;20024;-79
2023/02/03 07:11:04;;;;;;;4.35;3.50;;;;;;;2.60;55.82;95468.13;5066987;28;20065;-78
2023/02/03 07:13:29;;;;;;;4.50;3.08;;;;;;;2.71;55.44;95462.03;5050257;28;20029;-79
2023/02/03 07:15:55;;;;;;;4.03;3.25;;;;;;;2.86;55.00;95472.63;5067897;28;20029;-78
2023/02/03 07:18:23;;;;;;;6.90;3.50;;;;;;;2.98;54.33;95479.72;5068566;28;20354;-78
2023/02/03 07:20:52;;;;;;;5.18;3.03;;;;;;;3.01;54.13;95475.47;5070289;28;20052;-77
2023/02/03 07:23:18;;;;;;;2.97;2.35;;;;;;;3.04;53.78;95483.66;5066964;28;20079;-80
2023/02/03 07:25:43;;;;;;;5.65;3.17;;;;;;;3.16;53.71;95493.47;5065990;28;20044;-78
2023/02/03 07:28:09;;;;;;;4.53;3.10;;;;;;;3.42;52.96;95489.78;5066562;28;20025;-77
2023/02/03 07:30:34;;;;;;;5.28;3.20;;;;;;;3.60;52.23;95490.69;5067590;28;20033;-78
2023/02/03 07:33:00;;;;;;;3.95;2.88;;;;;;;3.65;51.65;95495.78;5067656;28;20051;-78
2023/02/03 07:35:26;;;;;;;3.60;2.85;;;;;;;3.75;51.40;95502.44;5073614;28;20028;-78
2023/02/03 07:37:52;;;;;;;3.28;2.47;;;;;;;3.85;50.91;95500.97;5068374;28;20056;-78
2023/02/03 07:40:18;;;;;;;3.80;2.30;;;;;;;3.98;50.40;95499.47;5066711;28;20367;-78
2023/02/03 07:42:47;;;;;;;5.05;2.75;;;;;;;4.07;50.26;95501.84;5049736;28;20156;-81
2023/02/03 07:45:14;;;;;;;4.45;2.78;;;;;;;4.22;49.79;95506.97;5067330;28;20025;-81
2023/02/03 07:47:41;;;;;;;2.38;1.92;;;;;;;4.33;49.85;95514.41;5066036;28;20028;-79
2023/02/03 07:50:07;;;;;;;3.97;2.33;;;;;;;4.53;49.12;95507.50;5066197;28;20029;-79
2023/02/03 07:52:32;;;;;;;4.40;2.40;;;;;;;4.75;48.69;95497.44;5067626;28;20062;-79
2023/02/03 07:54:58;;;;;;;2.10;1.88;;;;;;;4.92;47.72;95502.16;5066980;28;20106;-78
2023/02/03 07:57:23;;;;;;;2.70;2.13;;;;;;;5.18;47.47;95508.44;5067470;28;20116;-80
2023/02/03 07:59:49;;;;;;;3.70;2.20;;;;;;;5.49;46.51;95510.38;5066882;28;20044;-78
2023/02/03 08:02:14;;;;;;;5.03;2.28;;;;;;;5.76;45.84;95515.44;5066943;28;20066;-79
2023/02/03 08:04:39;;;;;;;2.70;2.10;;;;;;;5.88;45.20;95528.69;5065660;28;20105;-78
2023/02/03 08:07:05;;;;;;;2.67;1.75;;;;;;;6.08;44.97;95524.41;5065228;28;20024;-80
2023/02/03 08:09:30;;;;;;;4.85;2.00;;;;;;;6.25;44.04;95524.72;5066836;28;20055;-79
2023/02/03 08:11:55;;;;;;;2.78;2.10;;;;;;;6.16;44.35;95518.91;5065658;28;20074;-80
2023/02/03 08:14:21;;;;;;;4.95;2.15;;;;;;;6.42;43.80;95515.69;5067108;28;20024;-80
2023/02/03 08:16:46;;;;;;;3.67;3.13;;;;;;;6.51;43.88;95524.25;5066366;28;20033;-79
2023/02/03 08:19:12;;;;;;;5.10;2.20;;;;;;;6.70;43.42;95520.28;5066319;28;20017;-78
2023/02/03 08:21:37;;;;;;;2.95;2.05;;;;;;;6.82;43.38;95508.09;5065020;28;20071;-78
2023/02/03 08:24:04;;;;;;;4.68;2.22;;;;;;;7.14;42.75;95500.50;5067332;28;20107;-80
2023/02/03 08:26:29;;;;;;;2.35;1.65;;;;;;;7.43;41.71;95501.09;5064995;28;20029;-80
2023/02/03 08:28:54;;;;;;;2.95;1.92;;;;;;;7.81;40.67;95500.41;5067272;28;20044;-79
2023/02/03 08:31:20;;;;;;;2.50;1.90;;;;;;;8.07;39.72;95499.72;5072807;28;20020;-80
2023/02/03 08:33:45;;;;;;;1.83;1.60;;;;;;;8.35;38.34;95514.31;5067381;28;20074;-79
2023/02/03 08:36:11;;;;;;;3.00;1.55;;;;;;;8.46;37.77;95504.81;5066949;28;20111;-79
2023/02/03 08:38:37;;;;;;;4.18;1.80;;;;;;;8.57;36.89;95518.41;5048012;28;20394;-78
2023/02/03 08:41:10;;;;;;;2.58;1.55;;;;;;;8.33;37.31;95522.19;5066483;28;20513;-78
2023/02/03 08:43:36;;;;;;;3.17;1.98;;;;;;;7.75;37.96;95518.44;5066209;28;20021;-80
2023/02/03 08:46:03;;;;;;;2.10;1.80;;;;;;;8.06;38.27;95527.53;5066795;28;20029;-79
2023/02/03 08:48:29;;;;;;;4.28;2.40;;;;;;;8.08;38.46;95538.84;5064087;28;20083;-79
2023/02/03 08:50:54;;;;;;;2.70;1.90;;;;;;;8.57;37.31;95540.31;5064638;28;20032;-78
2023/02/03 08:53:20;;;;;;;3.92;2.00;;;;;;;8.58;37.06;95538.34;5066556;28;20028;-79
2023/02/03 08:55:45;;;;;;;3.80;2.00;;;;;;;8.75;37.11;95543.63;5065536;28;20542;-79
2023/02/03 08:58:10;;;;;;;3.53;2.08;;;;;;;9.27;36.71;95534.34;5064376;28;20028;-79
2023/02/03 09:00:36;;;;;;;4.18;1.52;;;;;;;9.98;34.98;95537.97;5064370;28;20466;-79
2023/02/03 09:03:01;;;;;;;2.45;1.67;;;;;;;10.83;33.52;95541.88;5066255;28;20119;-78
2023/02/03 09:05:29;;;;;;;4.82;2.42;;;;;;;12.09;31.73;95537.91;5064583;28;20085;-80
2023/02/03 09:07:55;;;;;;;2.83;1.73;;;;;;;13.60;29.48;95551.88;5064031;28;20020;-78
2023/02/03 09:10:20;;;;;;;2.97;1.70;;;;;;;15.44;27.09;95543.22;5047768;28;20036;-79
2023/02/03 09:12:45;;;;;;;5.30;1.73;;;;;;;15.15;27.54;95537.97;5064071;28;20404;-81
2023/02/03 09:15:11;;;;;;;4.57;2.13;;;;;;;16.26;25.47;95533.66;5066297;28;20502;-78
2023/02/03 09:17:36;;;;;;;3.15;1.73;;;;;;;14.92;26.36;95524.59;5065282;28;20028;-79
2023/02/03 09:20:02;;;;;;;2.40;1.65;;;;;;;13.33;28.81;95534.94;5064444;28;20028;-80
2023/02/03 09:22:27;;;;;;;4.53;1.50;;;;;;;13.57;28.56;95533.41;5046838;28;20317;-78
2023/02/03 09:24:52;;;;;;;3.05;1.80;;;;;;;13.82;27.84;95530.66;5065204;28;20035;-80
2023/02/03 09:27:18;;;;;;;2.30;1.20;;;;;;;11.85;31.37;95531.78;5069022;28;20044;-78
2023/02/03 09:29:43;;;;;;;2.35;1.58;;;;;;;10.38;33.43;95525.13;5066482;28;20112;-78
2023/02/03 09:32:09;;;;;;;1.63;1.42;;;;;;;11.39;32.57;95541.09;5064408;28;20044;-80
2023/02/03 09:34:35;;;;;;;5.00;1.77;;;;;;;11.45;32.02;95533.88;5064647;28;20020;-79
2023/02/03 09:37:01;;;;;;;3.20;1.50;;;;;;;12.06;30.99;95538.00;5065172;28;20056;-80
2023/02/03 09:39:26;;;;;;;2.35;1.50;;;;;;;14.84;26.87;95535.91;5064517;28;20121;-80
2023/02/03 09:41:57;;;;;;;2.80;1.35;;;;;;;16.50;24.26;95526.28;5063097;28;20253;-79
2023/02/03 09:44:41;;;;;;;3.13;2.10;;;;;;;16.12;24.41;95529.47;5064718;28;20028;-79
2023/02/03 09:47:14;;;;;;;2.88;1.42;;;;;;;18.63;21.86;95527.94;5066630;28;20062;-80
2023/02/03 09:49:46;;;;;;;3.58;1.90;;;;;;;20.30;19.88;95544.06;5064647;28;20067;-78
2023/02/03 09:52:21;;;;;;;1.98;1.20;;;;;;;19.83;19.50;95528.38;5064221;28;20051;-78
2023/02/03 09:54:57;;;;;;;2.03;1.10;;;;;;;16.58;22.46;95535.88;5062877;28;20137;-78
2023/02/03 09:57:28;;;;;;;2.00;1.50;;;;;;;15.58;23.71;95522.47;5063531;28;20403;-78
2023/02/03 09:59:58;;;;;;;1.45;1.10;;;;;;;16.16;22.61;95539.19;5045377;28;20421;-78
2023/02/03 10:02:48;;;;;;;2.45;1.35;;;;;;;15.94;23.57;95519.09;5063653;28;20028;-79
2023/02/03 10:05:32;;;;;;;2.10;1.50;;;;;;;17.66;21.02;95531.84;5064463;28;20025;-80
2023/02/03 10:08:15;;;;;;;1.48;1.20;;;;;;;19.49;20.05;95529.81;5064339;28;20025;-79
2023/02/03 10:10:48;;;;;;;2.50;1.50;;;;;;;18.96;19.95;95517.50;5064725;28;20016;-80
2023/02/03 10:13:48;;;;;;;2.80;1.77;;;;;;;19.62;19.48;95508.81;5062816;28;20385;-79
2023/02/03 10:16:14;;;;;;;3.80;2.20;;;;;;;18.52;20.11;95528.50;5064032;28;20518;-78
2023/02/03 10:18:45;;;;;;;2.92;1.70;;;;;;;18.25;21.00;95509.97;5064283;28;20037;-78
2023/02/03 10:21:46;;;;;;;5.90;2.53;;;;;;;21.09;18.28;95509.47;5024638;28;1131122;-79
2023/02/03 10:24:19;;;;;;;1.75;1.17;;;;;;;20.69;17.93;95497.09;5070924;28;20487;-79
2023/02/03 10:26:44;;;;;;;3.33;1.40;;;;;;;22.00;16.79;95500.59;5046993;28;20128;-78
2023/02/03 10:29:20;;;;;;;5.65;1.55;;;;;;;23.35;15.36;95501.97;5065229;28;20494;-78
2023/02/03 10:31:46;;;;;;;2.85;1.70;;;;;;;19.11;18.65;95495.22;5064302;28;20157;-79
2023/02/03 10:34:14;;;;;;;3.42;1.80;;;;;;;16.95;21.19;95478.34;5064151;28;20177;-80
2023/02/03 10:37:05;;;;;;;3.22;1.83;;;;;;;14.66;24.12;95477.66;5064336;28;20024;-79
2023/02/03 10:39:46;;;;;;;4.18;2.35;;;;;;;14.25;25.08;95471.16;5062737;28;20037;-80
2023/02/03 10:42:13;;;;;;;5.30;2.67;;;;;;;12.04;27.45;95469.53;5063737;28;20032;-79
2023/02/03 10:44:44;;;;;;;4.88;1.88;;;;;;;14.68;24.72;95479.97;5046832;28;20321;-80
2023/02/03 10:47:33;;;;;;;4.70;2.72;;;;;;;13.89;24.39;95474.38;5063389;28;20036;-79
2023/02/03 10:50:03;;;;;;;5.00;1.63;;;;;;;11.69;27.39;95477.44;5063485;28;20047;-79
2023/02/03 10:52:28;;;;;;;4.50;2.22;;;;;;;12.23;26.85;95481.66;5046317;28;20425;-78
2023/02/03 10:54:55;;;;;;;4.28;1.80;;;;;;;10.63;29.23;95466.88;5065363;28;20044;-78
2023/02/03 10:57:21;;;;;;;2.22;1.75;;;;;;;11.96;26.62;95473.69;5064386;28;20024;-78
2023/02/03 10:59:48;;;;;;;4.28;2.13;;;;;;;15.22;22.74;95476.00;5063231;28;20040;-77
2023/02/03 11:02:29;;;;;;;1.63;1.25;;;;;;;17.40;20.02;95484.25;5063862;28;20439;-78
2023/02/03 11:05:23;;;;;;;2.58;1.20;;;;;;;18.86;18.18;95477.03;5063400;28;20472;-77
2023/02/03 11:07:50;;;;;;;2.88;1.85;;;;;;;19.46;17.39;95473.00;5063363;28;20128;-81
2023/02/03 11:10:42;;;;;;;3.13;1.30;;;;;;;19.46;16.45;95481.38;5065565;28;20037;-81
2023/02/03 11:13:16;;;;;;;2.60;1.42;;;;;;;18.56;17.28;95476.19;5067847;28;20086;-78
2023/02/03 11:16:17;;;;;;;1.95;1.08;;;;;;;19.36;16.70;95468.78;5068442;28;20523;-79
2023/02/03 11:19:02;;;;;;;3.05;1.02;;;;;;;19.76;16.00;95451.44;5066989;28;20020;-81
2023/02/03 11:21:33;;;;;;;2.83;1.63;;;;;;;18.84;17.07;95460.03;5076173;28;20541;-82
2023/02/03 11:24:05;;;;;;;2.75;1.40;;;;;;;19.19;17.63;95459.38;5067802;28;20531;-81
2023/02/03 11:26:39;;;;;;;2.42;1.27;;;;;;;18.82;17.93;95443.81;5066720;28;20024;-81
2023/02/03 11:29:07;;;;;;;1.88;1.40;;;;;;;16.04;20.28;95425.63;5067419;28;20048;-82
2023/02/03 11:31:34;;;;;;;2.42;1.38;;;;;;;14.58;21.33;95421.06;5066066;28;20103;-81
2023/02/03 11:34:05;;;;;;;2.28;1.75;;;;;;;13.05;23.69;95439.94;5066497;28;20813;-80
2023/02/03 11:36:33;;;;;;;3.08;1.73;;;;;;;12.00;24.34;95448.81;5066623;28;20498;-81
2023/02/03 11:39:34;;;;;;;2.67;1.58;;;;;;;10.60;26.26;95442.97;5066148;28;20025;-81
2023/02/03 11:42:00;;;;;;;4.25;1.88;;;;;;;10.20;27.08;95436.69;5068465;28;20043;-80
2023/02/03 11:44:30;;;;;;;2.70;1.33;;;;;;;10.67;24.98;95426.34;5049505;28;20414;-80
2023/02/03 11:47:06;;;;;;;2.97;1.52;;;;;;;13.05;22.52;95412.31;5066547;28;20025;-81
2023/02/03 11:49:56;;;;;;;2.00;1.45;;;;;;;15.36;19.92;95442.19;5066256;28;20064;-81